Tiempo atmosférico en la estación meteorológica de Villanueva De Los Infantes, Ciudad Real (870 m.)



Fecha
DESCASC
Temp. máxima en grados centígrados (hora)
DESCASC
Temp. mínima en grados centígrados (hora)
DESCASC
Temp. media en grados centígrados
DESCASC
Racha de viento máxima en m/sg (hora)
DESCASC
Velocidad máxima media en intervalos de 10 minutos(hora)
DESCASC
Precipitaciones diarias en mm
DESCASC
Precipitaciones de 00:00 a 06:00 en mm
DESCASC
Precipitaciones de 06:00 a 12:00 en mm
DESCASC
Precipitaciones de 12:00 a 18:00 en mm
DESCASC
Precipitaciones de 18:00 a 24:00 en mm
DESCASC
02-04-2020 11.7 (19:00) 1.7 (07:00) 6.7 10 (14:40) 6.11 (16:20) 2.8 0 0 1.6 1.2
01-04-2020 13.3 (15:50) 5.5 (08:30) 9.4 9.17 (17:00) 5.83 (14:10) 1 1 0 0 0
31-03-2020 14.4 (16:00) 5.5 (00:00) 9.9 11.94 (12:40) 7.78 (12:50) 13.6 5.4 1.8 2.8 3.6
30-03-2020 10.5 (12:10) 5.5 (00:00) 8 9.17 (14:40) 4.44 (14:40) 8.8 0 0.4 0.8 7.6
29-03-2020 17.2 (17:00) 2.1 (00:00) 9.7 5.83 (19:00) 3.33 (19:00) 0 0 0 0 0
28-03-2020 12.3 (16:00) 0.6 (00:00) 6.5 10.56 (01:40) 7.78 (00:30) 0 0 0 0 0
27-03-2020 8.1 (09:50) 0.6 (00:00) 4.4 12.22 (21:40) 9.17 (11:40) 1.2 0 0.2 0.6 0.4
26-03-2020 14.5 (16:00) 5.1 (00:00) 9.8 11.39 (16:20) 5.56 (16:20) 0 0 0 0 0
25-03-2020 13.6 (17:10) 1.1 (00:00) 7.4 9.17 (07:10) 7.5 (07:00) 0 0 0 0 0
24-03-2020 12.5 (13:40) 5.2 (00:00) 8.8 22.5 (14:30) 15 (16:00) 0 0 0 0 0
23-03-2020 13.9 (15:20) 4.7 (00:00) 9.3 13.06 (16:00) 9.17 (20:00) 3.2 3 0 0 0.2
22-03-2020 8.6 (14:40) 3.6 (05:20) 6.1 7.78 (17:40) 5.28 (17:40) 16.4 0.4 0 15.6 0.4
21-03-2020 10.5 (17:30) 4.2 (00:00) 7.3 9.72 (08:10) 6.39 (08:10) 1.2 0 0.8 0 0.4
20-03-2020 18 (15:20) 4.5 (00:00) 11.3 10 (22:10) 7.22 (21:00) 0 0 0 0 0
19-03-2020 17.8 (14:30) 4.2 (00:00) 11 11.39 (00:30) 8.61 (00:30) 0 0 0 0 0
18-03-2020 13.6 (17:20) 7 (00:00) 10.3 15 (04:30) 11.11 (04:30) 0 0 0 0 0
17-03-2020 16.2 (15:50) 0.7 (00:00) 8.5 16.11 (17:20) 11.11 (21:30) 0 0 0 0 0
16-03-2020 10.3 (00:00) 0.5 (00:00) 5.4 14.17 (03:20) 8.61 (03:20) 7 5 2 0 0
15-03-2020 20.3 (15:00) 8.5 (00:00) 14.4 12.22 (17:40) 7.22 (16:50) 0 0 0 0 0
14-03-2020 21.3 (16:10) 7.8 (00:00) 14.5 6.39 (17:20) 3.89 (17:30) 0 0 0 0 0
13-03-2020 23.8 (16:40) 10 (04:20) 16.9 8.33 (17:00) 5.28 (18:30) 0 0 0 0 0
12-03-2020 26.5 (16:30) 11.8 (00:00) 19.2 8.61 (14:30) 4.72 (14:20) 0 0 0 0 0
11-03-2020 26.8 (16:00) 12.1 (00:00) 19.4 7.78 (21:30) 6.94 (21:20) 0 0 0 0 0
10-03-2020 20.1 (15:20) 4.8 (00:00) 12.5 7.78 (13:20) 5 (13:10) 0 0 0 0 0
09-03-2020 15.5 (15:40) 4 (00:00) 9.8 8.06 (15:10) 4.17 (16:20) 0 0 0 0 0
08-03-2020 17.9 (16:00) 3.5 (00:00) 10.7 9.17 (15:20) 5.83 (18:00) 0 0 0 0 0
07-03-2020 12.6 (16:10) 0.9 (00:00) 6.8 9.72 (17:00) 6.11 (16:00) 0 0 0 0 0
06-03-2020 10.5 (14:30) 2.9 (00:00) 6.7 13.89 (09:50) 9.17 (14:10) 0 0 0 0 0
05-03-2020 13.5 (16:30) 7.1 (00:00) 10.3 15.28 (13:00) 9.17 (15:50) 0 0 0 0 0

Gráficas

Temp. máximas Temp. mínimas Temp. medias Precipitaciones Rachas de viento máximas Velocidades máximas media en intervalos de 10 minutos

Datos horarios

Fecha y hora oficial Temperatura (ºC) Velocidad del viento (km/h) Dirección del viento Racha (km/h) Dirección de racha Precipitación (mm) Presión (hPa) Tendencia (hPa) Humedad (%)
2020-04-03 23:00:00 9.1 17 Este 22 Este 0 -- -- 76
2020-04-03 22:00:00 9.5 12 Nordeste 15 Nordeste 0 -- -- 76
2020-04-03 21:00:00 11.5 6 Nordeste 11 Nordeste 0 -- -- 71
2020-04-03 20:00:00 13.7 8 Nordeste 14 Norte 0 -- -- 58
2020-04-03 19:00:00 14.9 3 Nordeste 18 Nordeste 0 -- -- 51
2020-04-03 18:00:00 15.3 5 Norte 11 Oeste 0 -- -- 55
2020-04-03 17:00:00 14.2 4 Norte 10 Noroeste 0 -- -- 60
2020-04-03 16:00:00 12.5 6 Nordeste 16 Norte 0 -- -- 64
2020-04-03 15:00:00 13 4 Norte 14 Sudoeste 0 -- -- 64
2020-04-03 14:00:00 13.6 4 Sudeste 15 Oeste 0 -- -- 62
2020-04-03 13:00:00 11.3 4 Sudoeste 21 Sudoeste 0 -- -- 77
2020-04-03 12:00:00 9.9 5 Sur 15 Sur 0 -- -- 87
2020-04-03 11:00:00 7.2 6 Sudoeste 13 Sur 0 -- -- 96
2020-04-03 10:00:00 6.2 4 Sur 10 Sur 0 -- -- 96
2020-04-03 09:00:00 5.4 0 Calma 8 Sur 0 -- -- 95
2020-04-03 08:00:00 5.3 5 Sur 13 Sur 0 -- -- 96
2020-04-03 07:00:00 5.4 6 Sur 13 Sur 0 -- -- 96
2020-04-03 06:00:00 5.6 4 Sur 11 Sur 0 -- -- 96
2020-04-03 05:00:00 5.7 7 Sur 10 Sur 0 -- -- 96
2020-04-03 04:00:00 6.1 4 Sur 9 Sur 0 -- -- 96
2020-04-03 03:00:00 6.4 5 Sur 11 Sudoeste 0 -- -- 95
2020-04-03 02:00:00 6.6 4 Sur 8 Sudeste 0 -- -- 91
2020-04-03 01:00:00 6.9 4 Sudeste 12 Sudeste 0 -- -- 86
2020-04-03 00:00:00 7.3 6 Este 17 Norte 0.2 -- -- 87
2020-04-02 23:00:00 8.1 10 Nordeste 16 Norte 0 -- -- 84
2020-04-02 22:00:00 8.7 4 Norte 9 Sudeste 0 -- -- 79
2020-04-02 21:00:00 9.2 8 Sudeste 16 Oeste 0.4 -- -- 83
2020-04-02 20:00:00 10.8 5 Sudoeste 16 Noroeste 0.6 -- -- 78
2020-04-02 19:00:00 11.7 4 Noroeste 13 Norte 0 -- -- 66
2020-04-02 18:00:00 11.2 6 Norte 13 Noroeste 0 -- -- 71
2020-04-02 17:00:00 9.3 6 Norte 30 Este 0 -- -- 78
2020-04-02 16:00:00 9.7 3 Este 15 Sur 0.2 -- -- 72
2020-04-02 15:00:00 7.5 7 Sur 36 Sudeste 1.4 -- -- 84
2020-04-02 14:00:00 10.6 14 Este 22 Este 0 -- -- 63
2020-04-02 13:00:00 11.1 11 Este 20 Este 0 -- -- 64
2020-04-02 12:00:00 10.2 12 Nordeste 18 Nordeste 0 -- -- 66
2020-04-02 11:00:00 8.5 4 Norte 10 Norte 0 -- -- 77
2020-04-02 10:00:00 6.8 2 Nordeste 7 Sudeste 0 -- -- 85
2020-04-02 09:00:00 4.7 3 Sur 5 Sur 0 -- -- 95
2020-04-02 08:00:00 2.7 3 Sur 8 Sur 0 -- -- 97
2020-04-02 07:00:00 1.7 5 Sur 11 Sur 0 -- -- 94
2020-04-02 06:00:00 2.1 5 Sur 10 Sudeste 0 -- -- 94
2020-04-02 05:00:00 2.7 5 Sur 12 Sur 0 -- -- 94
2020-04-02 04:00:00 2.7 6 Sudeste 10 Sur 0 -- -- 93
2020-04-02 03:00:00 3.1 4 Sur 9 Sur 0 -- -- 91
2020-04-02 02:00:00 4.2 4 Sur 10 Sudoeste 0 -- -- 85
2020-04-02 01:00:00 5.1 6 Sur 13 Sudoeste 0 -- -- 82
2020-04-02 00:00:00 6.1 10 Sudoeste 17 Oeste 0 -- -- 78
2020-04-01 23:00:00 7 9 Sudoeste 14 Oeste 0 -- -- 78
2020-04-01 22:00:00 8.1 4 Sudoeste 12 Noroeste 0 -- -- 77
2020-04-01 21:00:00 8.9 8 Noroeste 23 Noroeste 0 -- -- 74
2020-04-01 20:00:00 10.8 15 Oeste 24 Oeste 0 -- -- 61
2020-04-01 19:00:00 11.6 18 Oeste 30 Oeste 0 -- -- 57
2020-04-01 18:00:00 12.4 12 Sudoeste 32 Noroeste 0 -- -- 63
2020-04-01 17:00:00 12.5 15 Oeste 33 Oeste 0 -- -- 61
2020-04-01 16:00:00 13 17 Oeste 31 Oeste 0 -- -- 59
2020-04-01 15:00:00 11.8 16 Oeste 32 Sudoeste 0 -- -- 69
2020-04-01 14:00:00 11.8 19 Sudoeste 29 Sudoeste 0 -- -- 66
2020-04-01 13:00:00 11.1 14 Oeste 26 Sudoeste 0 -- -- 72
2020-04-01 12:00:00 8.9 14 Oeste 22 Sudoeste 0 -- -- 81
2020-04-01 11:00:00 8.1 15 Oeste 29 Sudoeste 0 -- -- 86
2020-04-01 10:00:00 6.9 15 Sudoeste 24 Sudoeste 0 -- -- 96
2020-04-01 09:00:00 5.9 10 Sudoeste 18 Sudoeste 0 -- -- 97
2020-04-01 08:00:00 5.8 7 Sudoeste 19 Sudoeste 0 -- -- 96
2020-04-01 07:00:00 6.3 10 Sudoeste 18 Sur 0 -- -- 96
2020-04-01 06:00:00 6.3 9 Sudoeste 18 Sudoeste 0 -- -- 95
2020-04-01 05:00:00 6.6 8 Sudoeste 14 Sur 0.2 -- -- 95
2020-04-01 04:00:00 7.4 6 Sudoeste 18 Sur 0 -- -- 96
2020-04-01 03:00:00 7.9 9 Sudoeste 18 Sur 0.2 -- -- 96
2020-04-01 02:00:00 7.9 8 Sur 17 Sur 0.4 -- -- 96
2020-04-01 01:00:00 7.4 6 Sur 15 Sur 0.2 -- -- 95
2020-04-01 00:00:00 7.5 4 Sur 10 Sur 0.4 -- -- 94
2020-03-31 23:00:00 7.9 0 Calma 15 Oeste 0.4 -- -- 93
2020-03-31 22:00:00 7.6 5 Sudeste 12 Sur 0.2 -- -- 94
2020-03-31 21:00:00 8.6 13 Sudoeste 27 Sudoeste 1.6 -- -- 92
2020-03-31 20:00:00 9 7 Sudeste 11 Este 0 -- -- 92
2020-03-31 19:00:00 8.9 2 Norte 25 Oeste 1 -- -- 91
2020-03-31 18:00:00 9.9 12 Sudoeste 31 Sur 2.4 -- -- 85
2020-03-31 17:00:00 11.8 9 Sudoeste 27 Sur 0.4 -- -- 78
2020-03-31 16:00:00 14.4 21 Sur 36 Sudoeste 0 -- -- 63
2020-03-31 15:00:00 13.1 23 Sudoeste 37 Sudoeste 0 -- -- 69
2020-03-31 14:00:00 11.2 18 Sudoeste 35 Sudoeste 0 -- -- 79
2020-03-31 13:00:00 10.9 23 Sudoeste 43 Sudoeste 0 -- -- 83
2020-03-31 12:00:00 9.9 19 Sudoeste 33 Sur 0 -- -- 84
2020-03-31 11:00:00 8.6 19 Sudoeste 37 Sudoeste 0 -- -- 87
2020-03-31 10:00:00 7.6 7 Sur 21 Sur 0 -- -- 96
2020-03-31 09:00:00 6.1 8 Sudeste 18 Sudeste 0 -- -- 97
2020-03-31 08:00:00 5.7 10 Sudeste 21 Sudeste 0 -- -- 97
2020-03-31 07:00:00 6 8 Sudeste 15 Sudeste 1.8 -- -- 97
2020-03-31 06:00:00 6.2 3 Sudeste 13 Sudeste 2.2 -- -- 96
2020-03-31 05:00:00 6.1 5 Sur 18 Sur 1.4 -- -- 96
2020-03-31 04:00:00 6.4 6 Sur 18 Sur 0.6 -- -- 97
2020-03-31 03:00:00 6.4 8 Sur 19 Sudeste 0.6 -- -- 98
2020-03-31 02:00:00 6.2 3 Sur 12 Sudeste 0.4 -- -- 98
2020-03-31 01:00:00 5.6 4 Este 5 Este 0.2 -- -- 98
2020-03-31 00:00:00 5.5 3 Nordeste 8 Este 0.8 -- -- 97
2020-03-30 23:00:00 5.8 5 Norte 13 Nordeste 1.8 -- -- 97
2020-03-30 22:00:00 5.9 8 Nordeste 21 Nordeste 1 -- -- 96
2020-03-30 21:00:00 6.2 13 Norte 19 Noroeste 3.8 -- -- 94
2020-03-30 20:00:00 8.5 9 Norte 20 Nordeste 0.2 -- -- 84
2020-03-30 19:00:00 9.3 11 Nordeste 18 Nordeste 0 -- -- 78
2020-03-30 18:00:00 10 10 Nordeste 15 Nordeste 0 -- -- 78
2020-03-30 17:00:00 10.5 10 Norte 16 Noroeste 0 -- -- 73
2020-03-30 16:00:00 9.8 4 Norte 15 Oeste 0 -- -- 78
2020-03-30 15:00:00 9.1 2 Norte 33 Sudoeste 0.8 -- -- 81
2020-03-30 14:00:00 10.1 4 Norte 12 Noroeste 0 -- -- 81
2020-03-30 13:00:00 10 7 Noroeste 20 Sudoeste 0 -- -- 83
2020-03-30 12:00:00 10.2 11 Sudoeste 19 Sudoeste 0 -- -- 83
2020-03-30 11:00:00 8.6 9 Sudoeste 19 Sudoeste 0 -- -- 93
2020-03-30 10:00:00 7.5 8 Sur 14 Sur 0.4 -- -- 93
2020-03-30 09:00:00 7.2 8 Sudoeste 17 Sur 0 -- -- 89
2020-03-30 08:00:00 6.8 8 Sur 12 Sur 0 -- -- 85
2020-03-30 07:00:00 7.5 7 Sur 12 Sudoeste 0 -- -- 82
2020-03-30 06:00:00 8.2 6 Sudoeste 11 Sudoeste 0 -- -- 80
2020-03-30 05:00:00 7.9 8 Sudoeste 12 Sudoeste 0 -- -- 78
2020-03-30 04:00:00 8.1 6 Sur 9 Sur 0 -- -- 75
2020-03-30 03:00:00 8.3 5 Sudoeste 9 Sur 0 -- -- 72
2020-03-30 02:00:00 8.6 5 Sudoeste 9 Oeste 0 -- -- 73
2020-03-30 01:00:00 9.3 6 Oeste 12 Oeste 0 -- -- 70
2020-03-30 00:00:00 9.4 8 Sudoeste 14 Sudoeste 0 -- -- 69
2020-03-29 23:00:00 9.8 7 Sudoeste 17 Sudoeste 0 -- -- 68
2020-03-29 22:00:00 11.1 10 Sudoeste 16 Sudoeste 0 -- -- 64
2020-03-29 21:00:00 12.6 6 Sudoeste 15 Sudoeste 0 -- -- 55
2020-03-29 20:00:00 14.3 10 Oeste 20 Oeste 0 -- -- 45
2020-03-29 19:00:00 15.4 12 Oeste 21 Oeste 0 -- -- 42
2020-03-29 18:00:00 15.7 4 Noroeste 15 Oeste 0 -- -- 42
2020-03-29 17:00:00 17.2 9 Sur 14 Sur 0 -- -- 41
2020-03-29 16:00:00 14.7 6 Norte 19 Oeste 0 -- -- 48
2020-03-29 15:00:00 15.3 5 Sur 13 Sudoeste 0 -- -- 47
2020-03-29 14:00:00 13.6 4 Oeste 12 Sudoeste 0 -- -- 51
2020-03-29 13:00:00 12.6 4 Nordeste 15 Sur 0 -- -- 55
2020-03-29 12:00:00 11.6 8 Sur 18 Sudoeste 0 -- -- 65
2020-03-29 11:00:00 8.7 8 Sur 18 Sur 0 -- -- 77
2020-03-29 10:00:00 6.1 7 Sur 16 Sudoeste 0 -- -- 86
2020-03-29 09:00:00 3.4 5 Sur 11 Sur 0 -- -- 84
2020-03-29 08:00:00 2.1 5 Sur 9 Sudeste 0 -- -- 81
2020-03-29 07:00:00 2.5 5 Sur 10 Sur 0 -- -- 78
2020-03-29 06:00:00 2.7 5 Sur 12 Sur 0 -- -- 74
2020-03-29 05:00:00 3.6 8 Sudeste 10 Sudeste 0 -- -- 72
2020-03-29 03:00:00 3.1 9 Sudeste 16 Este 0 -- -- 76
2020-03-29 01:00:00 4.2 7 Sudeste 11 Este 0 -- -- 72
2020-03-29 00:00:00 4.6 7 Sudeste 18 Este 0 -- -- 72
2020-03-28 23:00:00 5.2 14 Sudeste 26 Este 0 -- -- 74
2020-03-28 22:00:00 5.2 18 Este 29 Este 0 -- -- 78
2020-03-28 21:00:00 6.1 21 Este 24 Este 0 -- -- 74
2020-03-28 20:00:00 7.8 15 Este 18 Este 0 -- -- 62
2020-03-28 19:00:00 10.3 13 Este 23 Este 0 -- -- 46
2020-03-28 18:00:00 11.5 17 Este 29 Este 0 -- -- 46
2020-03-28 17:00:00 11.9 20 Este 32 Este 0 -- -- 46
2020-03-28 16:00:00 12.3 23 Este 32 Este 0 -- -- 45
2020-03-28 15:00:00 11.9 17 Este 30 Este 0 -- -- 49
2020-03-28 14:00:00 11.6 14 Este 30 Este 0 -- -- 49
2020-03-28 13:00:00 10.4 10 Este 26 Este 0 -- -- 56
2020-03-28 12:00:00 10.3 8 Sudeste 22 Este 0 -- -- 63
2020-03-28 11:00:00 8.7 13 Este 19 Este 0 -- -- 74
2020-03-28 10:00:00 7.2 5 Sudeste 15 Sur 0 -- -- 79
2020-03-28 09:00:00 4.7 5 Sudeste 14 Este 0 -- -- 89
2020-03-28 08:00:00 2.2 12 Sudeste 21 Este 0 -- -- 92
2020-03-28 07:00:00 0.8 16 Sudeste 29 Este 0 -- -- 93
2020-03-28 06:00:00 1.1 23 Este 29 Este 0 -- -- 93
2020-03-28 05:00:00 0.7 22 Este 34 Este 0 -- -- 94
2020-03-28 04:00:00 1.3 27 Este 37 Este 0 -- -- 94
2020-03-28 03:00:00 1.5 25 Este 31 Este 0 -- -- 95
2020-03-28 02:00:00 1.4 25 Este 38 Este 0 -- -- 97
2020-03-28 01:00:00 0.8 26 Este 35 Este 0 -- -- 96
2020-03-28 00:00:00 0.6 26 Este 36 Este 0 -- -- 95
2020-03-27 23:00:00 1.4 26 Este 34 Este 0 -- -- 95
2020-03-27 22:00:00 1.5 27 Este 44 Este 0 -- -- 95
2020-03-27 21:00:00 1.7 14 Nordeste 20 Nordeste 0 -- -- 94
2020-03-27 20:00:00 2.4 4 Norte 26 Este 0.2 -- -- 93
2020-03-27 19:00:00 2.7 15 Sudeste 37 Este 0.2 -- -- 93
2020-03-27 18:00:00 3.1 29 Este 40 Este 0 -- -- 91
2020-03-27 17:00:00 3.1 29 Este 40 Este 0.2 -- -- 92
2020-03-27 16:00:00 3.5 30 Este 40 Este 0.2 -- -- 92
2020-03-27 15:00:00 3.7 27 Este 39 Este 0.2 -- -- 90
2020-03-27 14:00:00 3.9 26 Este 39 Este 0 -- -- 92
2020-03-27 13:00:00 5.6 24 Este 42 Este 0 -- -- 89
2020-03-27 12:00:00 3.6 31 Este 43 Este 0.2 -- -- 91
2020-03-27 11:00:00 5.9 20 Nordeste 27 Este 0 -- -- 86
2020-03-27 10:00:00 7.9 8 Noroeste 21 Sudoeste 0 -- -- 82
2020-03-27 09:00:00 7.1 8 Sudoeste 15 Sur 0 -- -- 88
2020-03-27 08:00:00 6.1 5 Sur 12 Sur 0 -- -- 89
2020-03-27 07:00:00 4.8 5 Sudeste 13 Sudeste 0 -- -- 86
2020-03-27 06:00:00 5.3 5 Sur 16 Sudeste 0 -- -- 83
2020-03-27 05:00:00 4.4 8 Sudeste 26 Sudeste 0 -- -- 83
2020-03-27 04:00:00 3.1 16 Este 32 Este 0 -- -- 87
2020-03-27 03:00:00 3.4 26 Este 35 Este 0 -- -- 84
2020-03-27 02:00:00 4.5 25 Este 32 Este 0 -- -- 69
2020-03-27 01:00:00 5.7 9 Sudeste 23 Este 0 -- -- 61
2020-03-27 00:00:00 7.3 18 Este 21 Este 0 -- -- 53
2020-03-26 23:00:00 8.6 11 Este 14 Este 0 -- -- 49
2020-03-26 22:00:00 8.5 13 Este 21 Este 0 -- -- 49
2020-03-26 21:00:00 9.2 17 Este 21 Este 0 -- -- 45
2020-03-26 20:00:00 9.8 8 Nordeste 17 Norte 0 -- -- 45
2020-03-26 19:00:00 12.2 13 Norte 21 Norte 0 -- -- 34
2020-03-26 18:00:00 13.2 12 Norte 25 Noroeste 0 -- -- 44
2020-03-26 17:00:00 13.6 12 Norte 41 Norte 0 -- -- 46
2020-03-26 16:00:00 14.5 17 Norte 33 Norte 0 -- -- 47
2020-03-26 15:00:00 13.7 15 Norte 30 Noroeste 0 -- -- 46
2020-03-26 14:00:00 12.9 17 Norte 30 Norte 0 -- -- 44
2020-03-26 13:00:00 12.3 16 Noroeste 31 Noroeste 0 -- -- 38
2020-03-26 12:00:00 11.5 10 Noroeste 25 Noroeste 0 -- -- 50
2020-03-26 11:00:00 10 13 Norte 23 Noroeste 0 -- -- 55
2020-03-26 10:00:00 8.5 13 Norte 23 Noroeste 0 -- -- 85
2020-03-26 09:00:00 7.2 9 Oeste 17 Noroeste 0 -- -- 92
2020-03-26 08:00:00 6.9 9 Oeste 18 Noroeste 0 -- -- 89
2020-03-26 07:00:00 6.5 11 Oeste 17 Oeste 0 -- -- 89
2020-03-26 06:00:00 5.7 9 Oeste 14 Oeste 0 -- -- 90
2020-03-26 05:00:00 5.1 7 Sur 12 Oeste 0 -- -- 87
2020-03-26 04:00:00 6.1 10 Sudoeste 17 Oeste 0 -- -- 84
2020-03-26 03:00:00 6.4 11 Oeste 22 Oeste 0 -- -- 83
2020-03-26 02:00:00 6.7 10 Oeste 14 Oeste 0 -- -- 83
2020-03-26 01:00:00 7.4 0 Calma 37 Nordeste 0 -- -- 81
2020-03-26 00:00:00 8.2 14 Norte 23 Nordeste 0 -- -- 76
2020-03-25 23:00:00 8.1 13 Oeste 18 Oeste 0 -- -- 69
2020-03-25 22:00:00 8.7 8 Sudoeste 12 Sudoeste 0 -- -- 61
2020-03-25 21:00:00 9.8 7 Sudoeste 9 Sudoeste 0 -- -- 58
2020-03-25 20:00:00 10.5 5 Oeste 13 Noroeste 0 -- -- 56
2020-03-25 19:00:00 12 8 Noroeste 19 Noroeste 0 -- -- 51
2020-03-25 18:00:00 12.6 10 Noroeste 26 Norte 0 -- -- 49
2020-03-25 17:00:00 13.5 10 Norte 26 Noroeste 0 -- -- 48
2020-03-25 16:00:00 13.2 14 Norte 26 Norte 0 -- -- 47
2020-03-25 15:00:00 12 13 Norte 26 Noroeste 0 -- -- 51
2020-03-25 14:00:00 12.9 9 Noroeste 19 Noroeste 0 -- -- 52
2020-03-25 13:00:00 11.7 8 Norte 18 Noroeste 0 -- -- 55
2020-03-25 12:00:00 10.7 6 Norte 12 Norte 0 -- -- 59
2020-03-25 11:00:00 9.6 5 Sudoeste 12 Sudoeste 0 -- -- 64
2020-03-25 10:00:00 7.6 10 Este 23 Este 0 -- -- 75
2020-03-25 09:00:00 5.3 14 Este 22 Este 0 -- -- 86
2020-03-25 08:00:00 1.8 16 Sudeste 33 Este 0 -- -- 95
2020-03-25 07:00:00 1.5 27 Este 32 Este 0 -- -- 94
2020-03-25 06:00:00 1.6 24 Este 32 Este 0 -- -- 92
2020-03-25 05:00:00 2 22 Este 28 Este 0 -- -- 91
2020-03-25 04:00:00 2.7 18 Este 26 Este 0 -- -- 89
2020-03-25 03:00:00 3.3 18 Este 27 Sudeste 0 -- -- 89
2020-03-25 02:00:00 4 16 Sudeste 31 Sudeste 0 -- -- 86
2020-03-25 01:00:00 4.2 13 Sudeste 27 Este 0 -- -- 85
2020-03-25 00:00:00 5.2 17 Sudeste 38 Este 0 -- -- 82
2020-03-24 23:00:00 5.5 27 Este 43 Este 0 -- -- 81
2020-03-24 22:00:00 6.3 30 Este 53 Este 0 -- -- 83
2020-03-24 21:00:00 6.5 35 Este 47 Este 0 -- -- 85
2020-03-24 20:00:00 7.2 32 Este 51 Este 0 -- -- 86
2020-03-24 19:00:00 7.8 37 Este 52 Este 0 -- -- 84
2020-03-24 18:00:00 8.5 38 Este 62 Este 0 -- -- 82
2020-03-24 17:00:00 9.5 41 Este 69 Este 0 -- -- 78
2020-03-24 16:00:00 10.4 54 Este 76 Este 0 -- -- 74
2020-03-24 15:00:00 12.1 53 Este 81 Este 0 -- -- 70
2020-03-24 14:00:00 12.1 47 Sudeste 75 Este 0 -- -- 68
2020-03-24 13:00:00 10.6 39 Este 71 Este 0 -- -- 74
2020-03-24 12:00:00 11.2 46 Este 66 Este 0 -- -- 72
2020-03-24 11:00:00 9.7 44 Este 63 Este 0 -- -- 81
2020-03-24 10:00:00 8.9 48 Este 68 Este 0 -- -- 82
2020-03-24 09:00:00 7.3 40 Este 57 Este 0 -- -- 85
2020-03-24 08:00:00 6.4 37 Este 60 Este 0 -- -- 86
2020-03-24 07:00:00 5.6 35 Sudeste 57 Sudeste 0 -- -- 85
2020-03-24 06:00:00 6.2 18 Sudeste 43 Sudeste 0 -- -- 83
2020-03-24 05:00:00 6.5 26 Este 45 Este 0 -- -- 82
2020-03-24 04:00:00 6.6 27 Este 37 Este 0 -- -- 85
2020-03-24 03:00:00 6.5 21 Este 37 Este 0 -- -- 87
2020-03-24 02:00:00 6.4 18 Sudeste 32 Este 0 -- -- 88
2020-03-24 01:00:00 6.7 25 Este 36 Este 0 -- -- 87
2020-03-24 00:00:00 7.1 20 Este 43 Este 0 -- -- 84
2020-03-23 23:00:00 7.4 19 Este 29 Este 0 -- -- 87
2020-03-23 22:00:00 7.3 15 Sudeste 36 Este 0.2 -- -- 86
2020-03-23 21:00:00 8.3 24 Este 39 Este 0 -- -- 82
2020-03-23 20:00:00 8.4 33 Este 46 Este 0 -- -- 88
2020-03-23 19:00:00 10 19 Sudeste 34 Sudeste 0 -- -- 76
2020-03-23 18:00:00 10.6 19 Sudeste 35 Este 0 -- -- 73
2020-03-23 17:00:00 10.6 15 Sudeste 33 Sudeste 0 -- -- 76
2020-03-23 16:00:00 10.6 21 Sudeste 47 Sudeste 0 -- -- 76
2020-03-23 15:00:00 12.6 10 Sur 29 Este 0 -- -- 65
2020-03-23 14:00:00 13.1 9 Sudeste 25 Este 0 -- -- 62
2020-03-23 13:00:00 12.9 10 Sur 26 Sudeste 0 -- -- 68
2020-03-23 12:00:00 12.6 9 Sudeste 27 Sudeste 0 -- -- 68
2020-03-23 11:00:00 10.9 7 Sudeste 22 Sudeste 0 -- -- 76
2020-03-23 10:00:00 9 8 Sudeste 20 Sudeste 0 -- -- 87
2020-03-23 09:00:00 6.6 3 Sudeste 9 Este 0 -- -- 94
2020-03-23 08:00:00 5.6 2 Sudeste 8 Sur 0 -- -- 96
2020-03-23 07:00:00 5.2 2 Sur 8 Este 0 -- -- 95
2020-03-23 06:00:00 5.6 5 Sudeste 11 Este 0 -- -- 95
2020-03-23 05:00:00 5.5 3 Nordeste 5 Nordeste 0.2 -- -- 96
2020-03-23 04:00:00 5.4 0 Calma 6 Este 1.2 -- -- 96
2020-03-23 03:00:00 5.4 2 Sudeste 6 Sudeste 1 -- -- 96
2020-03-23 02:00:00 5.4 3 Sur 14 Este 0.4 -- -- 96
2020-03-23 01:00:00 5.2 5 Este 8 Este 0.2 -- -- 96
2020-03-23 00:00:00 4.8 3 Sur 6 Sudeste 0 -- -- 95
2020-03-22 23:00:00 4.9 2 Sudeste 6 Este 0 -- -- 95
2020-03-22 22:00:00 5.1 0 Calma 4 Este 0 -- -- 94
2020-03-22 21:00:00 5.6 2 Norte 6 Oeste 0 -- -- 93
2020-03-22 20:00:00 6.3 3 Sudoeste 5 Oeste 0.2 -- -- 91
2020-03-22 19:00:00 7.1 3 Sudoeste 15 Sudoeste 0.2 -- -- 89
2020-03-22 18:00:00 6.9 13 Sudoeste 28 Sudoeste 0.2 -- -- 91
2020-03-22 17:00:00 6.5 14 Sudoeste 28 Sudoeste 2.8 -- -- 88
2020-03-22 16:00:00 8.5 3 Norte 17 Norte 0 -- -- 87
2020-03-22 15:00:00 8.4 12 Norte 20 Norte 0 -- -- 88
2020-03-22 14:00:00 7.3 10 Norte 20 Oeste 10.4 -- -- 95
2020-03-22 13:00:00 6.7 8 Noroeste 14 Norte 2.2 -- -- 94
2020-03-22 12:00:00 7.4 8 Norte 12 Noroeste 0 -- -- 89
2020-03-22 11:00:00 6.5 9 Nordeste 18 Este 0 -- -- 90
2020-03-22 10:00:00 6.4 12 Nordeste 19 Este 0 -- -- 91
2020-03-22 09:00:00 5.6 13 Este 20 Este 0 -- -- 93
2020-03-22 08:00:00 4.9 13 Este 17 Este 0 -- -- 95
2020-03-22 07:00:00 4.6 6 Este 14 Este 0 -- -- 95
2020-03-22 06:00:00 4.2 12 Este 15 Este 0 -- -- 95
2020-03-22 05:00:00 3.8 15 Este 19 Este 0 -- -- 94
2020-03-22 04:00:00 4.1 8 Este 12 Este 0.2 -- -- 94
2020-03-22 03:00:00 4.9 4 Sur 8 Sudeste 0 -- -- 91
2020-03-22 02:00:00 5.7 0 Calma 4 Oeste 0 -- -- 92
2020-03-22 01:00:00 6.1 0 Calma 12 Sudoeste 0.2 -- -- 92
2020-03-22 00:00:00 6.2 7 Sudoeste 13 Sudoeste 0.2 -- -- 92
2020-03-21 23:00:00 5.4 4 Sur 18 Sudoeste 0 -- -- 83
2020-03-21 22:00:00 5.3 10 Sudeste 21 Este 0 -- -- 78
2020-03-21 21:00:00 4.3 18 Este 26 Este 0 -- -- 86
2020-03-21 20:00:00 5.7 12 Sudeste 21 Sudeste 0 -- -- 81
2020-03-21 19:00:00 8.5 13 Este 18 Este 0.2 -- -- 70
2020-03-21 18:00:00 10.5 5 Sur 16 Sur 0 -- -- 59
2020-03-21 17:00:00 9.9 9 Sudoeste 16 Sudoeste 0 -- -- 64
2020-03-21 16:00:00 8.5 9 Sudoeste 18 Sudoeste 0 -- -- 70
2020-03-21 15:00:00 8.1 10 Sudoeste 16 Sudoeste 0 -- -- 74
2020-03-21 14:00:00 8.3 9 Sur 29 Sudoeste 0 -- -- 75
2020-03-21 13:00:00 8 18 Sudoeste 28 Sudoeste 0 -- -- 77
2020-03-21 12:00:00 7.5 17 Sudoeste 30 Sudoeste 0 -- -- 84
2020-03-21 11:00:00 6.6 12 Sudoeste 19 Sudoeste 0.8 -- -- 89
2020-03-21 10:00:00 6.4 12 Oeste 34 Oeste 0 -- -- 79
2020-03-21 09:00:00 7 23 Oeste 35 Sudoeste 0 -- -- 81
2020-03-21 08:00:00 7.7 17 Sudoeste 30 Sudoeste 0 -- -- 83
2020-03-21 07:00:00 7.4 6 Sur 17 Sudeste 0 -- -- 83
2020-03-21 06:00:00 6.9 6 Sudeste 13 Sudeste 0 -- -- 82
2020-03-21 05:00:00 6.5 7 Sudeste 15 Sudeste 0 -- -- 83
2020-03-21 04:00:00 6.7 7 Sur 14 Sur 0 -- -- 83
2020-03-21 03:00:00 7 6 Sudeste 16 Sudeste 0 -- -- 83
2020-03-21 02:00:00 6.9 8 Sudeste 20 Sur 0 -- -- 85
2020-03-21 01:00:00 7 11 Sur 18 Sur 0 -- -- 85
2020-03-21 00:00:00 7.2 8 Sudeste 22 Sudeste 0 -- -- 83
2020-03-20 23:00:00 7.8 12 Sudeste 36 Este 0 -- -- 81
2020-03-20 22:00:00 8.3 24 Este 34 Este 0 -- -- 81
2020-03-20 21:00:00 9.1 26 Este 36 Este 0 -- -- 76
2020-03-20 20:00:00 11.2 21 Este 29 Este 0 -- -- 66
2020-03-20 19:00:00 14 9 Sudoeste 21 Sur 0 -- -- 56
2020-03-20 18:00:00 15.1 12 Sudoeste 23 Sudoeste 0 -- -- 55
2020-03-20 17:00:00 17.4 8 Sur 21 Sur 0 -- -- 47
2020-03-20 16:00:00 17.6 8 Sur 25 Sur 0 -- -- 47
2020-03-20 15:00:00 17.7 10 Sur 22 Sur 0 -- -- 45
2020-03-20 14:00:00 16 9 Sur 25 Sudoeste 0 -- -- 52
2020-03-20 13:00:00 15.7 10 Sur 19 Sur 0 -- -- 50
2020-03-20 12:00:00 13.4 5 Sur 18 Sudeste 0 -- -- 57
2020-03-20 11:00:00 12.4 9 Sudeste 23 Sudeste 0 -- -- 62
2020-03-20 10:00:00 10.5 10 Sudeste 20 Este 0 -- -- 66
2020-03-20 09:00:00 8 10 Sudeste 19 Sudeste 0 -- -- 75
2020-03-20 08:00:00 4.6 8 Sudeste 17 Este 0 -- -- 86
2020-03-20 07:00:00 4.8 11 Sudeste 19 Sudeste 0 -- -- 87
2020-03-20 06:00:00 5.3 8 Sudeste 19 Sudeste 0 -- -- 86
2020-03-20 05:00:00 5.7 13 Sudeste 21 Sudeste 0 -- -- 86
2020-03-20 04:00:00 5.8 12 Sudeste 24 Sudeste 0 -- -- 85
2020-03-20 03:00:00 5.9 12 Sudeste 20 Sudeste 0 -- -- 84
2020-03-20 02:00:00 6.1 13 Sudeste 22 Este 0 -- -- 82
2020-03-20 01:00:00 6.7 11 Sudeste 21 Este 0 -- -- 80
2020-03-20 00:00:00 7.5 15 Este 22 Este 0 -- -- 78
2020-03-19 23:00:00 7.2 12 Este 22 Este 0 -- -- 79
2020-03-19 22:00:00 7.9 18 Este 27 Este 0 -- -- 76
2020-03-19 21:00:00 8.8 17 Este 26 Este 0 -- -- 74
2020-03-19 20:00:00 9.9 16 Este 27 Este 0 -- -- 72
2020-03-19 19:00:00 11.9 15 Sudeste 28 Este 0 -- -- 67
2020-03-19 18:00:00 14.2 16 Sudeste 30 Este 0 -- -- 61
2020-03-19 17:00:00 16.3 12 Sudeste 31 Este 0 -- -- 56
2020-03-19 16:00:00 16.3 12 Sudeste 22 Sudeste 0 -- -- 55
2020-03-19 15:00:00 16.6 6 Sudeste 22 Sudeste 0 -- -- 54
2020-03-19 14:00:00 17.5 8 Sur 18 Sudeste 0 -- -- 50
2020-03-19 13:00:00 15.8 6 Sudeste 21 Este 0 -- -- 52
2020-03-19 12:00:00 14.4 6 Sudeste 19 Sur 0 -- -- 58
2020-03-19 11:00:00 12.2 5 Sudeste 18 Este 0 -- -- 62
2020-03-19 10:00:00 9.9 12 Sudeste 23 Este 0 -- -- 76
2020-03-19 09:00:00 6.5 18 Este 23 Este 0 -- -- 88
2020-03-19 08:00:00 4.5 17 Este 23 Este 0 -- -- 90
2020-03-19 07:00:00 4.2 14 Este 22 Este 0 -- -- 88
2020-03-19 06:00:00 5.2 13 Este 26 Sudeste 0 -- -- 85
2020-03-19 05:00:00 5.3 12 Sudeste 22 Sudeste 0 -- -- 87
2020-03-19 04:00:00 4.8 14 Este 25 Este 0 -- -- 89
2020-03-19 03:00:00 5.1 19 Este 25 Este 0 -- -- 88
2020-03-19 02:00:00 5.6 16 Sudeste 31 Sudeste 0 -- -- 84
2020-03-19 01:00:00 5.8 25 Este 41 Este 0 -- -- 80
2020-03-19 00:00:00 7 26 Sudeste 37 Este 0 -- -- 74
2020-03-18 23:00:00 7.6 19 Sudeste 39 Este 0 -- -- 73
2020-03-18 22:00:00 8.5 20 Sudeste 35 Este 0 -- -- 78
2020-03-18 21:00:00 9 27 Este 36 Este 0 -- -- 77
2020-03-18 20:00:00 10 23 Este 33 Este 0 -- -- 73
2020-03-18 19:00:00 11.6 20 Sudeste 37 Sudeste 0 -- -- 68
2020-03-18 18:00:00 13.1 24 Sudeste 40 Este 0 -- -- 63
2020-03-18 17:00:00 13.3 24 Sudeste 44 Este 0 -- -- 65
2020-03-18 16:00:00 12.7 24 Sudeste 44 Este 0 -- -- 65
2020-03-18 15:00:00 12.8 27 Este 44 Este 0 -- -- 61
2020-03-18 14:00:00 12.7 22 Sudeste 37 Este 0 -- -- 61
2020-03-18 13:00:00 12.9 20 Sudeste 38 Sudeste 0 -- -- 62
2020-03-18 12:00:00 11.9 24 Sudeste 43 Sudeste 0 -- -- 63
2020-03-18 11:00:00 11.1 25 Sudeste 42 Sudeste 0 -- -- 68
2020-03-18 10:00:00 10.5 21 Sudeste 46 Este 0 -- -- 73
2020-03-18 09:00:00 9 20 Sudeste 38 Sudeste 0 -- -- 78
2020-03-18 08:00:00 7.8 20 Sudeste 50 Este 0 -- -- 80
2020-03-18 07:00:00 7.7 34 Este 48 Este 0 -- -- 79
2020-03-18 06:00:00 7.7 13 Sudeste 41 Sudeste 0 -- -- 80
2020-03-18 05:00:00 8.2 25 Sudeste 54 Este 0 -- -- 78
2020-03-18 04:00:00 8.4 25 Este 38 Este 0 -- -- 79
2020-03-18 03:00:00 8.5 18 Sudeste 38 Este 0 -- -- 78
2020-03-18 02:00:00 8.5 19 Sudeste 41 Este 0 -- -- 80
2020-03-18 01:00:00 8.7 27 Este 42 Este 0 -- -- 82
2020-03-18 00:00:00 9.2 31 Este 41 Este 0 -- -- 85
2020-03-17 23:00:00 10.3 31 Este 47 Este 0 -- -- 82
2020-03-17 22:00:00 10.6 26 Sudeste 56 Este 0 -- -- 85
2020-03-17 21:00:00 10.9 28 Este 51 Este 0 -- -- 85
2020-03-17 20:00:00 11.1 33 Este 42 Este 0 -- -- 85
2020-03-17 19:00:00 12 23 Este 46 Este 0 -- -- 79
2020-03-17 18:00:00 12.5 34 Este 58 Este 0 -- -- 74
2020-03-17 17:00:00 13.9 28 Sudeste 50 Este 0 -- -- 66
2020-03-17 16:00:00 16.2 18 Sudeste 40 Este 0 -- -- 50
2020-03-17 15:00:00 15.4 23 Este 37 Este 0 -- -- 51
2020-03-17 14:00:00 14.7 14 Sudeste 33 Sudeste 0 -- -- 48
2020-03-17 13:00:00 13.4 16 Sudeste 41 Sudeste 0 -- -- 53
2020-03-17 12:00:00 11.9 22 Sudeste 40 Sudeste 0 -- -- 57
2020-03-17 11:00:00 9.9 20 Sudeste 37 Este 0 -- -- 68
2020-03-17 10:00:00 6.3 10 Este 20 Este 0 -- -- 81
2020-03-17 09:00:00 2.6 15 Este 19 Este 0 -- -- 88
2020-03-17 08:00:00 3.1 10 Sudeste 23 Sudeste 0 -- -- 85
2020-03-17 07:00:00 2.1 17 Este 24 Sudeste 0 -- -- 89
2020-03-17 06:00:00 0.8 20 Este 28 Este 0 -- -- 91
2020-03-17 05:00:00 0.9 17 Este 30 Este 0 -- -- 88
2020-03-17 04:00:00 1 25 Este 32 Este 0 -- -- 84
2020-03-17 03:00:00 1.1 9 Sudeste 24 Este 0 -- -- 83
2020-03-17 02:00:00 1.5 19 Este 28 Este 0 -- -- 84
2020-03-17 01:00:00 1.3 19 Este 26 Este 0 -- -- 90
2020-03-17 00:00:00 1.2 19 Este 24 Este 0 -- -- 89
2020-03-16 23:00:00 0.8 3 Sudeste 6 Sur 0 -- -- 85
2020-03-16 22:00:00 1.5 4 Sur 15 Este 0 -- -- 85
2020-03-16 21:00:00 2.2 3 Sudeste 14 Sur 0 -- -- 84
2020-03-16 20:00:00 3.8 9 Sudoeste 17 Sur 0 -- -- 76
2020-03-16 19:00:00 5.3 10 Sudoeste 24 Oeste 0 -- -- 74
2020-03-16 18:00:00 6.1 14 Sudoeste 29 Oeste 0 -- -- 64
2020-03-16 17:00:00 6.2 13 Sudoeste 31 Sudoeste 0 -- -- 66
2020-03-16 16:00:00 7.2 17 Sudoeste 32 Sudoeste 0 -- -- 62
2020-03-16 15:00:00 7.2 22 Oeste 35 Oeste 0 -- -- 67
2020-03-16 14:00:00 6.7 18 Oeste 35 Sudoeste 0 -- -- 70
2020-03-16 13:00:00 5.3 21 Sudoeste 34 Sudoeste 0 -- -- 73
2020-03-16 12:00:00 6.7 20 Sudoeste 35 Sudoeste 0 -- -- 78
2020-03-16 11:00:00 4 19 Sudoeste 44 Sudoeste 0 -- -- 86
2020-03-16 10:00:00 2.8 17 Sudoeste 27 Sudoeste 0.6 -- -- 95
2020-03-16 09:00:00 1.8 13 Sudoeste 24 Sudoeste 1 -- -- 97
2020-03-16 08:00:00 0.7 13 Sur 19 Sur 0.2 -- -- 96
2020-03-16 07:00:00 0.7 8 Oeste 40 Oeste 0.2 -- -- 93
2020-03-16 06:00:00 3.5 22 Noroeste 40 Noroeste 2 -- -- 87
2020-03-16 05:00:00 6.3 17 Noroeste 33 Noroeste 2 -- -- 93
2020-03-16 04:00:00 7.7 17 Noroeste 51 Sudoeste 1 -- -- 92
2020-03-16 03:00:00 10 18 Sudoeste 29 Sur 0 -- -- 79
2020-03-16 02:00:00 8 8 Sur 17 Sur 0 -- -- 81
2020-03-16 01:00:00 9.4 5 Sudeste 10 Sudeste 0 -- -- 74
2020-03-16 00:00:00 10.3 2 Noroeste 16 Norte 0 -- -- 71
2020-03-15 23:00:00 11.3 11 Noroeste 23 Noroeste 0 -- -- 68
2020-03-15 22:00:00 12 7 Sudoeste 17 Sudoeste 0 -- -- 76
2020-03-15 21:00:00 11.7 11 Sur 22 Sudoeste 0 -- -- 71
2020-03-15 20:00:00 13.3 17 Sudoeste 32 Sudoeste 0 -- -- 61
2020-03-15 19:00:00 15.3 19 Sudoeste 36 Sudoeste 0 -- -- 57
2020-03-15 18:00:00 17.5 25 Sudoeste 44 Sudoeste 0 -- -- 54
2020-03-15 17:00:00 18.5 24 Sudoeste 35 Sudoeste 0 -- -- 50
2020-03-15 16:00:00 20.2 23 Sudoeste 33 Sudoeste 0 -- -- 44
2020-03-15 15:00:00 20.3 12 Sudoeste 24 Sudoeste 0 -- -- 47
2020-03-15 14:00:00 18.5 15 Sudoeste 29 Sudoeste 0 -- -- 55
2020-03-15 13:00:00 17.9 12 Sudoeste 25 Sur 0 -- -- 59
2020-03-15 12:00:00 16.9 15 Sudoeste 26 Sudoeste 0 -- -- 61
2020-03-15 11:00:00 15.2 12 Sudoeste 21 Sudoeste 0 -- -- 70
2020-03-15 10:00:00 12.9 11 Sudoeste 25 Sur 0 -- -- 77
2020-03-15 09:00:00 11.3 12 Sur 15 Sur 0 -- -- 84
2020-03-15 08:00:00 9.3 8 Sur 16 Sur 0 -- -- 89
2020-03-15 07:00:00 8.6 6 Sur 10 Sur 0 -- -- 86
2020-03-15 06:00:00 9.1 5 Sur 10 Sur 0 -- -- 84
2020-03-15 05:00:00 9.4 6 Sur 9 Sur 0 -- -- 82
2020-03-15 04:00:00 9.1 6 Sur 10 Sudeste 0 -- -- 81
2020-03-15 03:00:00 9.9 4 Sur 9 Sudeste 0 -- -- 76
2020-03-15 02:00:00 10.9 5 Sur 11 Sur 0 -- -- 73
2020-03-15 01:00:00 11.2 6 Sur 8 Sur 0 -- -- 74
2020-03-15 00:00:00 11.5 5 Sur 9 Sur 0 -- -- 72
2020-03-14 23:00:00 11.9 4 Sur 8 Sudeste 0 -- -- 68
2020-03-14 22:00:00 13.4 5 Sur 10 Sur 0 -- -- 61
2020-03-14 21:00:00 15.8 5 Sudoeste 6 Oeste 0 -- -- 55
2020-03-14 20:00:00 16.9 0 Calma 9 Oeste 0 -- -- 53
2020-03-14 19:00:00 18.4 8 Oeste 17 Sudoeste 0 -- -- 50
2020-03-14 18:00:00 19.7 11 Oeste 23 Sudoeste 0 -- -- 47
2020-03-14 17:00:00 20.8 5 Sudoeste 21 Sudoeste 0 -- -- 45
2020-03-14 16:00:00 21.2 8 Sudoeste 19 Sudoeste 0 -- -- 44
2020-03-14 15:00:00 21 10 Sur 20 Sur 0 -- -- 45
2020-03-14 14:00:00 19.6 3 Sudoeste 14 Oeste 0 -- -- 49
2020-03-14 13:00:00 17.9 9 Sudoeste 15 Oeste 0 -- -- 64
2020-03-14 12:00:00 15.3 7 Noroeste 13 Norte 0 -- -- 76
2020-03-14 11:00:00 13.2 4 Sudoeste 15 Sudoeste 0 -- -- 87
2020-03-14 10:00:00 10.9 8 Sudoeste 17 Sur 0 -- -- 95
2020-03-14 09:00:00 10 12 Sur 17 Sur 0 -- -- 95
2020-03-14 08:00:00 8.2 4 Sur 10 Sudoeste 0 -- -- 93
2020-03-14 07:00:00 7.8 6 Sur 9 Sudeste 0 -- -- 90
2020-03-14 06:00:00 8.4 4 Sur 12 Sudeste 0 -- -- 89
2020-03-14 05:00:00 8.5 5 Sur 12 Sur 0 -- -- 87
2020-03-14 04:00:00 9.2 6 Sudeste 10 Sur 0 -- -- 87
2020-03-14 03:00:00 9.7 6 Sur 9 Sur 0 -- -- 80
2020-03-14 02:00:00 10.9 6 Sur 10 Sur 0 -- -- 77
2020-03-14 01:00:00 10.6 9 Sur 11 Sur 0 -- -- 75
2020-03-14 00:00:00 10.6 6 Sur 10 Sur 0 -- -- 67
2020-03-13 23:00:00 11.3 5 Sur 12 Sudeste 0 -- -- 62
2020-03-13 22:00:00 13.3 8 Sur 19 Sudoeste 0 -- -- 53
2020-03-13 21:00:00 15.3 12 Sudoeste 25 Oeste 0 -- -- 45
2020-03-13 20:00:00 17.2 11 Sudoeste 23 Sudoeste 0 -- -- 34
2020-03-13 19:00:00 19.5 16 Sudoeste 28 Sudoeste 0 -- -- 34
2020-03-13 18:00:00 21.2 17 Sudoeste 25 Sudoeste 0 -- -- 33
2020-03-13 17:00:00 23.2 13 Sudoeste 30 Sudoeste 0 -- -- 29
2020-03-13 16:00:00 23.4 11 Oeste 28 Oeste 0 -- -- 34
2020-03-13 15:00:00 22.3 9 Sudoeste 24 Sudoeste 0 -- -- 34
2020-03-13 14:00:00 22.2 9 Oeste 21 Oeste 0 -- -- 35
2020-03-13 13:00:00 21 10 Oeste 21 Oeste 0 -- -- 36
2020-03-13 12:00:00 20.2 12 Oeste 26 Sudoeste 0 -- -- 39
2020-03-13 11:00:00 18.3 14 Sudoeste 21 Sudoeste 0 -- -- 45
2020-03-13 10:00:00 15.4 15 Sudoeste 23 Sudoeste 0 -- -- 60
2020-03-13 09:00:00 12 9 Sur 14 Sur 0 -- -- 75
2020-03-13 08:00:00 10.6 5 Sur 11 Sur 0 -- -- 77
2020-03-13 07:00:00 10.2 5 Sur 10 Sur 0 -- -- 78
2020-03-13 06:00:00 10.1 6 Sur 11 Sur 0 -- -- 78
2020-03-13 05:00:00 10.4 7 Sur 12 Sur 0 -- -- 77
2020-03-13 04:00:00 10.2 6 Sur 12 Sudoeste 0 -- -- 73
2020-03-13 03:00:00 10.8 6 Sur 12 Sudeste 0 -- -- 68
2020-03-13 02:00:00 11.6 7 Sur 12 Sur 0 -- -- 62
2020-03-13 01:00:00 12.9 6 Sur 12 Sur 0 -- -- 58
2020-03-13 00:00:00 14.6 5 Sur 9 Sur 0 -- -- 51
2020-03-12 23:00:00 15.5 5 Sur 9 Sur 0 -- -- 49
2020-03-12 22:00:00 16.7 0 Calma 8 Nordeste 0 -- -- 46
2020-03-12 21:00:00 17.6 4 Nordeste 15 Sudoeste 0 -- -- 45
2020-03-12 20:00:00 19.2 11 Sudoeste 18 Sudoeste 0 -- -- 42
2020-03-12 19:00:00 22 14 Sudoeste 22 Sudoeste 0 -- -- 36
2020-03-12 18:00:00 24.5 15 Sudoeste 22 Oeste 0 -- -- 29
2020-03-12 17:00:00 26.2 11 Oeste 21 Sudoeste 0 -- -- 28
2020-03-12 16:00:00 26.2 12 Sudoeste 22 Sudoeste 0 -- -- 28
2020-03-12 15:00:00 26.4 13 Sudoeste 31 Sudoeste 0 -- -- 29
2020-03-12 14:00:00 26.2 9 Oeste 22 Sudoeste 0 -- -- 30
2020-03-12 13:00:00 25.6 10 Sudoeste 23 Sudoeste 0 -- -- 31
2020-03-12 12:00:00 24.4 4 Sudeste 11 Sur 0 -- -- 33
2020-03-12 11:00:00 22.3 4 Sur 6 Sur 0 -- -- 37
2020-03-12 10:00:00 19.1 3 Sur 8 Sur 0 -- -- 45
2020-03-12 09:00:00 16.3 5 Sudeste 9 Sudeste 0 -- -- 51
2020-03-12 08:00:00 14.2 6 Sudeste 10 Sur 0 -- -- 52
2020-03-12 07:00:00 13.8 6 Sudeste 10 Sur 0 -- -- 52
2020-03-12 06:00:00 13.5 8 Sur 12 Sudeste 0 -- -- 54
2020-03-12 05:00:00 11.9 6 Sur 12 Sudeste 0 -- -- 58
2020-03-12 04:00:00 12 9 Sur 13 Sur 0 -- -- 58
2020-03-12 03:00:00 12.1 10 Sur 15 Sur 0 -- -- 58
2020-03-12 02:00:00 13.7 8 Sudeste 16 Sudeste 0 -- -- 54
2020-03-12 01:00:00 14.6 9 Sur 15 Sur 0 -- -- 51
2020-03-12 00:00:00 15.9 10 Sudeste 16 Sudeste 0 -- -- 47
2020-03-11 23:00:00 16.4 10 Sudeste 25 Este 0 -- -- 44
2020-03-11 22:00:00 17.4 24 Este 28 Este 0 -- -- 42
2020-03-11 21:00:00 18.5 21 Este 25 Este 0 -- -- 40
2020-03-11 20:00:00 19.3 17 Este 18 Este 0 -- -- 37
2020-03-11 19:00:00 21.9 8 Nordeste 13 Nordeste 0 -- -- 35
2020-03-11 18:00:00 24.7 8 Norte 15 Noroeste 0 -- -- 30
2020-03-11 17:00:00 25.6 6 Norte 13 Nordeste 0 -- -- 30
2020-03-11 16:00:00 26.8 6 Oeste 16 Nordeste 0 -- -- 26
2020-03-11 15:00:00 25.9 7 Noroeste 17 Norte 0 -- -- 27
2020-03-11 14:00:00 25.3 7 Norte 12 Nordeste 0 -- -- 29
2020-03-11 13:00:00 24.1 5 Noroeste 9 Norte 0 -- -- 34
2020-03-11 12:00:00 22.4 3 Noroeste 8 Sur 0 -- -- 36
2020-03-11 11:00:00 19.8 3 Sudoeste 9 Sur 0 -- -- 40
2020-03-11 10:00:00 16.5 2 Sur 5 Sur 0 -- -- 57
2020-03-11 09:00:00 14.3 4 Sur 5 Sur 0 -- -- 56
2020-03-11 08:00:00 13.5 2 Sudeste 6 Sur 0 -- -- 53
2020-03-11 07:00:00 12.1 6 Sur 8 Sudeste 0 -- -- 56
2020-03-11 06:00:00 12.4 6 Sur 8 Sur 0 -- -- 54
2020-03-11 05:00:00 13.3 6 Sur -- -- 0 -- -- 51
2020-03-11 04:00:00 13.3 5 Sur 7 Sur 0 -- -- 50
2020-03-11 03:00:00 14 2 Sur 8 Sur 0 -- -- 49
2020-03-11 02:00:00 14.1 3 Sudoeste 8 Sudeste 0 -- -- 49
2020-03-11 01:00:00 12.6 8 Sur 11 Sudoeste 0 -- -- 53
2020-03-11 00:00:00 13.8 4 Este 7 Sur 0 -- -- 50
2020-03-10 23:00:00 13.9 5 Sur 8 Sudeste 0 -- -- 49
2020-03-10 22:00:00 13.9 6 Sur 9 Sur 0 -- -- 50
2020-03-10 21:00:00 15.8 7 Sur 9 Sur 0 -- -- 45
2020-03-10 20:00:00 17 6 Oeste 9 Noroeste 0 -- -- 43
2020-03-10 19:00:00 18 8 Noroeste 15 Norte 0 -- -- 42
2020-03-10 18:00:00 19.5 8 Norte 17 Norte 0 -- -- 39
2020-03-10 17:00:00 19.8 10 Norte 20 Norte 0 -- -- 38
2020-03-10 16:00:00 19.8 10 Norte 23 Norte 0 -- -- 38
2020-03-10 15:00:00 19.6 10 Nordeste 23 Nordeste 0 -- -- 39
2020-03-10 14:00:00 18.3 12 Nordeste 28 Nordeste 0 -- -- 41
2020-03-10 13:00:00 16.8 14 Nordeste 22 Norte 0 -- -- 43
2020-03-10 12:00:00 15 10 Nordeste 17 Nordeste 0 -- -- 46
2020-03-10 11:00:00 13.1 8 Nordeste 15 Nordeste 0 -- -- 49
2020-03-10 10:00:00 10.8 4 Noroeste 6 Norte 0 -- -- 57
2020-03-10 09:00:00 7.2 0 Calma 11 Sur 0 -- -- 64
2020-03-10 08:00:00 6.5 3 Este 12 Este 0 -- -- 61
2020-03-10 07:00:00 5.2 7 Este 10 Este 0 -- -- 65
2020-03-10 06:00:00 5.2 4 Sur 8 Sur 0 -- -- 63
2020-03-10 05:00:00 5 6 Sur 11 Sur 0 -- -- 65
2020-03-10 04:00:00 5.8 5 Sur 11 Nordeste 0 -- -- 61
2020-03-10 03:00:00 5.7 8 Nordeste 15 Nordeste 0 -- -- 61
2020-03-10 02:00:00 6.3 10 Nordeste 15 Nordeste 0 -- -- 59
2020-03-10 01:00:00 7.2 14 Nordeste 18 Nordeste 0 -- -- 57
2020-03-10 00:00:00 7.1 12 Nordeste 18 Norte 0 -- -- 56
2020-03-09 23:00:00 8.6 7 Nordeste 17 Norte 0 -- -- 52
2020-03-09 22:00:00 9 8 Nordeste 13 Norte 0 -- -- 49
2020-03-09 21:00:00 10.4 5 Norte 13 Norte 0 -- -- 44
2020-03-09 20:00:00 11.6 7 Norte 17 Norte 0 -- -- 41
2020-03-09 19:00:00 13.7 11 Norte 20 Norte 0 -- -- 36
2020-03-09 18:00:00 14.9 9 Noroeste 26 Noroeste 0 -- -- 39
2020-03-09 17:00:00 15 14 Norte 27 Norte 0 -- -- 42
2020-03-09 16:00:00 15.5 14 Noroeste 29 Noroeste 0 -- -- 39
2020-03-09 15:00:00 15.3 12 Noroeste 26 Oeste 0 -- -- 48
2020-03-09 14:00:00 14.6 8 Noroeste 22 Oeste 0 -- -- 49
2020-03-09 13:00:00 12.7 8 Noroeste 19 Noroeste 0 -- -- 58
2020-03-09 12:00:00 11.5 9 Noroeste 17 Noroeste 0 -- -- 66
2020-03-09 11:00:00 10.2 3 Oeste 11 Oeste 0 -- -- 67
2020-03-09 10:00:00 7.7 4 Sudoeste 8 Sudoeste 0 -- -- 78
2020-03-09 09:00:00 5.2 3 Sudoeste 8 Sur 0 -- -- 82
2020-03-09 08:00:00 4 4 Sudoeste 9 Nordeste 0 -- -- 81
2020-03-09 07:00:00 4.9 8 Nordeste 9 Nordeste 0 -- -- 78
2020-03-09 06:00:00 5.4 2 Norte 3 Nordeste 0 -- -- 78
2020-03-09 05:00:00 5.4 2 Norte 8 Norte 0 -- -- 76
2020-03-09 04:00:00 6.7 5 Noroeste 12 Oeste 0 -- -- 72
2020-03-09 03:00:00 7.3 6 Noroeste 13 Oeste 0 -- -- 68
2020-03-09 02:00:00 7.8 6 Noroeste 10 Noroeste 0 -- -- 65
2020-03-09 01:00:00 8.7 4 Noroeste 12 Noroeste 0 -- -- 59
2020-03-09 00:00:00 9.4 6 Noroeste 12 Noroeste 0 -- -- 58
2020-03-08 23:00:00 9.9 8 Noroeste 14 Noroeste 0 -- -- 51
2020-03-08 22:00:00 11.1 8 Noroeste 18 Noroeste 0 -- -- 43
2020-03-08 21:00:00 12.5 12 Oeste 20 Oeste 0 -- -- 39
2020-03-08 20:00:00 13.4 9 Oeste 15 Noroeste 0 -- -- 40
2020-03-08 19:00:00 14.1 10 Noroeste 30 Norte 0 -- -- 38
2020-03-08 18:00:00 16.1 21 Noroeste 32 Oeste 0 -- -- 29
2020-03-08 17:00:00 17.6 19 Oeste 33 Noroeste 0 -- -- 25
2020-03-08 16:00:00 17.9 17 Oeste 33 Oeste 0 -- -- 29
2020-03-08 15:00:00 17.3 12 Oeste 27 Oeste 0 -- -- 35
2020-03-08 14:00:00 16.2 15 Oeste 23 Oeste 0 -- -- 37
2020-03-08 13:00:00 15.1 12 Oeste 20 Oeste 0 -- -- 45
2020-03-08 12:00:00 13.4 12 Oeste 19 Oeste 0 -- -- 48
2020-03-08 11:00:00 11.2 8 Oeste 13 Sudoeste 0 -- -- 58
2020-03-08 10:00:00 7.7 6 Sur 10 Sur 0 -- -- 70
2020-03-08 09:00:00 4.5 5 Sur 11 Sudeste 0 -- -- 76
2020-03-08 08:00:00 3.5 5 Sur 9 Sur 0 -- -- 76
2020-03-08 07:00:00 3.8 6 Sur 8 Sur 0 -- -- 74
2020-03-08 06:00:00 5.1 4 Sur 6 Sur 0 -- -- 70
2020-03-08 05:00:00 5.2 4 Sur 7 Sudeste 0 -- -- 70
2020-03-08 04:00:00 5.1 6 Sur 8 Sur 0 -- -- 70
2020-03-08 03:00:00 4.4 6 Sur 9 Sur 0 -- -- 71
2020-03-08 02:00:00 4.7 6 Sur 9 Sur 0 -- -- 70
2020-03-08 01:00:00 6.1 4 Norte 6 Norte 0 -- -- 64
2020-03-08 00:00:00 6.7 3 Oeste 9 Sudoeste 0 -- -- 62
2020-03-07 23:00:00 6.5 3 Sudoeste 8 Norte 0 -- -- 63
2020-03-07 22:00:00 7.7 2 Nordeste 12 Norte 0 -- -- 59
2020-03-07 21:00:00 8.7 8 Norte 17 Norte 0 -- -- 57
2020-03-07 20:00:00 9.4 4 Norte 19 Norte 0 -- -- 55
2020-03-07 19:00:00 10.4 14 Norte 29 Noroeste 0 -- -- 51
2020-03-07 18:00:00 12 17 Norte 32 Norte 0 -- -- 49
2020-03-07 17:00:00 12.3 20 Norte 35 Norte 0 -- -- 47
2020-03-07 16:00:00 12.3 22 Norte 33 Nordeste 0 -- -- 48
2020-03-07 15:00:00 11.7 19 Norte 35 Norte 0 -- -- 48
2020-03-07 14:00:00 10.9 16 Norte 29 Norte 0 -- -- 51
2020-03-07 13:00:00 9.7 16 Nordeste 23 Norte 0 -- -- 53
2020-03-07 12:00:00 8.4 12 Norte 21 Norte 0 -- -- 56
2020-03-07 11:00:00 6.7 12 Nordeste 18 Nordeste 0 -- -- 57
2020-03-07 10:00:00 5.2 8 Norte 14 Norte 0 -- -- 61
2020-03-07 09:00:00 2.9 2 Nordeste 6 Norte 0 -- -- 68
2020-03-07 08:00:00 1.4 4 Noroeste 9 Norte 0 -- -- 70
2020-03-07 07:00:00 1.4 5 Norte 17 Norte 0 -- -- 70
2020-03-07 06:00:00 0.9 9 Nordeste 15 Norte 0 -- -- 72
2020-03-07 05:00:00 1.3 8 Nordeste 17 Norte 0 -- -- 69
2020-03-07 04:00:00 2.6 8 Norte 13 Norte 0 -- -- 64
2020-03-07 03:00:00 3.2 7 Norte 15 Noroeste 0 -- -- 62
2020-03-07 02:00:00 2.7 0 Calma 10 Norte 0 -- -- 64
2020-03-07 01:00:00 3.5 6 Norte 18 Norte 0 -- -- 61
2020-03-07 00:00:00 3.9 7 Norte 13 Norte 0 -- -- 59
2020-03-06 23:00:00 4.6 11 Norte 23 Norte 0 -- -- 53
2020-03-06 22:00:00 5.3 11 Norte 22 Norte 0 -- -- 53
2020-03-06 21:00:00 5.9 6 Norte 27 Nordeste 0 -- -- 54
2020-03-06 20:00:00 7 19 Nordeste 27 Nordeste 0 -- -- 49
2020-03-06 19:00:00 8.5 19 Norte 44 Nordeste 0 -- -- 45
2020-03-06 18:00:00 10.1 18 Norte 42 Norte 0 -- -- 44
2020-03-06 17:00:00 9.8 20 Norte 39 Norte 0 -- -- 44
2020-03-06 16:00:00 9.9 23 Norte 40 Norte 0 -- -- 42
2020-03-06 15:00:00 10.1 27 Noroeste 47 Norte 0 -- -- 44
2020-03-06 14:00:00 10 29 Noroeste 48 Noroeste 0 -- -- 49
2020-03-06 13:00:00 9.6 28 Noroeste 46 Noroeste 0 -- -- 54
2020-03-06 12:00:00 8.4 29 Noroeste 46 Noroeste 0 -- -- 65
2020-03-06 11:00:00 7 26 Noroeste 50 Noroeste 0 -- -- 75
2020-03-06 10:00:00 5.4 24 Noroeste 50 Noroeste 0 -- -- 89
2020-03-06 09:00:00 3.9 16 Oeste 29 Oeste 0 -- -- 93
2020-03-06 08:00:00 3.1 15 Oeste 35 Oeste 0 -- -- 93
2020-03-06 07:00:00 3.3 19 Oeste 36 Oeste 0 -- -- 94
2020-03-06 06:00:00 3.2 17 Oeste 28 Oeste 0 -- -- 93
2020-03-06 05:00:00 3.1 13 Oeste 25 Oeste 0 -- -- 90
2020-03-06 04:00:00 3.9 18 Oeste 37 Oeste 0 -- -- 90
2020-03-06 03:00:00 4.8 19 Oeste 39 Oeste 0 -- -- 87
2020-03-06 02:00:00 5.7 17 Oeste 38 Oeste 0 -- -- 85
2020-03-06 01:00:00 6.4 19 Oeste 34 Oeste 0 -- -- 82
2020-03-06 00:00:00 7.2 19 Oeste 33 Oeste 0 -- -- 80
2020-03-05 23:00:00 7.2 15 Oeste 23 Oeste 0 -- -- 78
2020-03-05 22:00:00 7.6 15 Oeste 31 Oeste 0 -- -- 73
2020-03-05 21:00:00 8.9 17 Oeste 26 Oeste 0 -- -- 70
2020-03-05 20:00:00 9.5 14 Oeste 39 Noroeste 0 -- -- 66
2020-03-05 19:00:00 10.7 25 Oeste 45 Oeste 0 -- -- 60
2020-03-05 18:00:00 11.6 22 Oeste 42 Oeste 0 -- -- 58
2020-03-05 17:00:00 12.1 26 Noroeste 50 Oeste 0 -- -- 57
2020-03-05 16:00:00 12.7 32 Oeste 49 Oeste 0 -- -- 71
2020-03-05 15:00:00 10.3 28 Oeste 45 Oeste 0 -- -- 90
2020-03-05 14:00:00 10 26 Sudoeste 49 Oeste 0 -- -- 92
2020-03-05 13:00:00 11.6 32 Oeste 55 Oeste 0 -- -- 76
2020-03-05 12:00:00 12.2 28 Sudoeste 45 Sudoeste 0 -- -- 73
2020-03-05 11:00:00 11.2 27 Oeste 40 Oeste 0 -- -- 75
2020-03-05 10:00:00 10.2 26 Sudoeste 37 Sudoeste 0 -- -- 80
2020-03-05 09:00:00 8.7 19 Sudoeste 27 Sudoeste 0 -- -- 84
2020-03-05 08:00:00 8 16 Sudoeste 23 Sudoeste 0 -- -- 85
2020-03-05 07:00:00 8.2 14 Sudoeste 22 Sudoeste 0 -- -- 85
2020-03-05 06:00:00 8.2 15 Sudoeste 21 Sudoeste 0 -- -- 84
2020-03-05 05:00:00 7.8 10 Sudoeste 20 Sudoeste 0 -- -- 84
2020-03-05 04:00:00 7.6 12 Sudoeste 18 Oeste 0 -- -- 83
2020-03-05 03:00:00 8.6 12 Oeste 18 Oeste 0 -- -- 78
2020-03-05 02:00:00 9.4 8 Sudoeste 15 Oeste 0 -- -- 75
2020-03-05 01:00:00 9.8 10 Oeste 19 Oeste 0 -- -- 73
2020-03-05 00:00:00 10.1 12 Oeste 21 Oeste 0 -- -- 75